sensor_id;sensor_type;location;lat;lon;timestamp;pressure;altitude;pressure_sealevel;temperature;humidity
47374;BME280;33123;50.118;10.272;2023-05-03T00:01:52;98623.69;;;8.73;67.20
47374;BME280;33123;50.118;10.272;2023-05-03T00:04:20;98616.81;;;8.72;66.91
47374;BME280;33123;50.118;10.272;2023-05-03T00:06:47;98616.00;;;8.72;66.81
47374;BME280;33123;50.118;10.272;2023-05-03T00:09:14;98610.16;;;8.70;67.18
47374;BME280;33123;50.118;10.272;2023-05-03T00:11:41;98611.44;;;8.61;66.36
47374;BME280;33123;50.118;10.272;2023-05-03T00:17:49;98623.72;;;8.60;66.23
47374;BME280;33123;50.118;10.272;2023-05-03T00:20:17;98622.94;;;8.60;66.23
47374;BME280;33123;50.118;10.272;2023-05-03T00:22:45;98619.94;;;8.56;66.02
47374;BME280;33123;50.118;10.272;2023-05-03T00:25:11;98620.56;;;8.52;65.92
47374;BME280;33123;50.118;10.272;2023-05-03T00:27:39;98621.56;;;8.51;66.18
47374;BME280;33123;50.118;10.272;2023-05-03T00:30:07;98632.72;;;8.46;65.99
47374;BME280;33123;50.118;10.272;2023-05-03T00:32:34;98623.84;;;8.40;65.50
47374;BME280;33123;50.118;10.272;2023-05-03T00:35:01;98618.78;;;8.32;65.65
47374;BME280;33123;50.118;10.272;2023-05-03T00:37:29;98617.59;;;8.28;66.20
47374;BME280;33123;50.118;10.272;2023-05-03T00:39:56;98618.59;;;8.27;65.82
47374;BME280;33123;50.118;10.272;2023-05-03T00:42:23;98614.78;;;8.23;65.99
47374;BME280;33123;50.118;10.272;2023-05-03T00:44:50;98611.56;;;8.21;65.37
47374;BME280;33123;50.118;10.272;2023-05-03T00:47:16;98586.41;;;8.00;65.82
47374;BME280;33123;50.118;10.272;2023-05-03T00:49:43;98611.59;;;8.14;66.31
47374;BME280;33123;50.118;10.272;2023-05-03T00:52:10;98606.16;;;8.09;66.11
47374;BME280;33123;50.118;10.272;2023-05-03T00:54:38;98605.97;;;8.11;66.46
47374;BME280;33123;50.118;10.272;2023-05-03T00:57:05;98601.09;;;8.08;66.35
47374;BME280;33123;50.118;10.272;2023-05-03T00:59:32;98605.34;;;8.09;66.25
47374;BME280;33123;50.118;10.272;2023-05-03T01:02:01;98604.75;;;8.07;65.74
47374;BME280;33123;50.118;10.272;2023-05-03T01:04:36;98600.91;;;8.03;66.32
47374;BME280;33123;50.118;10.272;2023-05-03T01:07:14;98604.97;;;7.99;66.35
47374;BME280;33123;50.118;10.272;2023-05-03T01:09:53;98611.22;;;7.98;66.06
47374;BME280;33123;50.118;10.272;2023-05-03T01:12:29;98606.41;;;7.94;66.16
47374;BME280;33123;50.118;10.272;2023-05-03T01:15:06;98606.59;;;7.93;65.63
47374;BME280;33123;50.118;10.272;2023-05-03T01:20:37;98599.56;;;7.87;65.79
47374;BME280;33123;50.118;10.272;2023-05-03T01:23:12;98611.69;;;7.81;65.92
47374;BME280;33123;50.118;10.272;2023-05-03T01:25:41;98604.81;;;7.80;66.19
47374;BME280;33123;50.118;10.272;2023-05-03T01:28:07;98607.03;;;7.77;66.45
47374;BME280;33123;50.118;10.272;2023-05-03T01:30:35;98604.84;;;7.74;66.40
47374;BME280;33123;50.118;10.272;2023-05-03T01:33:06;98594.38;;;7.67;66.35
47374;BME280;33123;50.118;10.272;2023-05-03T01:35:39;98600.41;;;7.67;66.09
47374;BME280;33123;50.118;10.272;2023-05-03T01:38:07;98601.22;;;7.68;66.02
47374;BME280;33123;50.118;10.272;2023-05-03T01:40:38;98604.06;;;7.66;66.10
47374;BME280;33123;50.118;10.272;2023-05-03T01:43:08;98587.09;;;7.62;66.61
47374;BME280;33123;50.118;10.272;2023-05-03T01:45:36;98572.19;;;7.50;66.74
47374;BME280;33123;50.118;10.272;2023-05-03T01:48:08;98583.47;;;7.57;66.33
47374;BME280;33123;50.118;10.272;2023-05-03T01:50:36;98589.75;;;7.56;66.70
47374;BME280;33123;50.118;10.272;2023-05-03T01:53:02;98573.63;;;7.46;66.59
47374;BME280;33123;50.118;10.272;2023-05-03T01:55:29;98581.06;;;7.49;66.80
47374;BME280;33123;50.118;10.272;2023-05-03T01:57:56;98572.81;;;7.45;66.25
47374;BME280;33123;50.118;10.272;2023-05-03T02:00:24;98574.44;;;7.39;66.55
47374;BME280;33123;50.118;10.272;2023-05-03T02:02:51;98581.50;;;7.39;66.47
47374;BME280;33123;50.118;10.272;2023-05-03T02:05:17;98580.06;;;7.36;66.94
47374;BME280;33123;50.118;10.272;2023-05-03T02:07:44;98579.47;;;7.28;66.29
47374;BME280;33123;50.118;10.272;2023-05-03T02:10:11;98579.88;;;7.31;66.91
47374;BME280;33123;50.118;10.272;2023-05-03T02:12:39;98577.47;;;7.23;66.47
47374;BME280;33123;50.118;10.272;2023-05-03T02:15:06;98572.03;;;7.18;66.82
47374;BME280;33123;50.118;10.272;2023-05-03T02:17:34;98577.06;;;7.20;66.41
47374;BME280;33123;50.118;10.272;2023-05-03T02:20:02;98580.47;;;7.20;66.08
47374;BME280;33123;50.118;10.272;2023-05-03T02:22:30;98583.50;;;7.17;66.15
47374;BME280;33123;50.118;10.272;2023-05-03T02:24:57;98584.72;;;7.14;66.14
47374;BME280;33123;50.118;10.272;2023-05-03T02:27:24;98590.38;;;7.11;66.14
47374;BME280;33123;50.118;10.272;2023-05-03T02:29:51;98596.81;;;7.09;66.58
47374;BME280;33123;50.118;10.272;2023-05-03T02:32:17;98575.84;;;6.96;65.98
47374;BME280;33123;50.118;10.272;2023-05-03T02:34:47;98595.41;;;7.00;66.64
47374;BME280;33123;50.118;10.272;2023-05-03T02:37:15;98592.75;;;6.93;66.48
47374;BME280;33123;50.118;10.272;2023-05-03T02:39:41;98602.06;;;6.96;66.59
47374;BME280;33123;50.118;10.272;2023-05-03T02:42:08;98604.03;;;6.94;66.88
47374;BME280;33123;50.118;10.272;2023-05-03T02:44:35;98602.06;;;6.96;66.77
47374;BME280;33123;50.118;10.272;2023-05-03T02:47:01;98603.28;;;7.00;66.28
47374;BME280;33123;50.118;10.272;2023-05-03T02:49:28;98596.41;;;6.99;66.05
47374;BME280;33123;50.118;10.272;2023-05-03T02:51:56;98598.03;;;7.00;66.20
47374;BME280;33123;50.118;10.272;2023-05-03T02:54:23;98592.16;;;6.84;65.61
47374;BME280;33123;50.118;10.272;2023-05-03T02:56:49;98605.91;;;7.00;65.97
47374;BME280;33123;50.118;10.272;2023-05-03T02:59:16;98611.13;;;7.00;65.56
47374;BME280;33123;50.118;10.272;2023-05-03T03:01:43;98598.00;;;6.93;65.67
47374;BME280;33123;50.118;10.272;2023-05-03T03:04:11;98608.50;;;7.00;65.44
47374;BME280;33123;50.118;10.272;2023-05-03T03:06:37;98604.47;;;7.04;66.37
47374;BME280;33123;50.118;10.272;2023-05-03T03:09:05;98614.78;;;7.12;66.03
47374;BME280;33123;50.118;10.272;2023-05-03T03:11:32;98607.72;;;7.19;66.01
47374;BME280;33123;50.118;10.272;2023-05-03T03:13:59;98609.94;;;7.22;65.55
47374;BME280;33123;50.118;10.272;2023-05-03T03:16:25;98613.75;;;7.26;64.91
47374;BME280;33123;50.118;10.272;2023-05-03T03:18:52;98613.34;;;7.29;64.42
47374;BME280;33123;50.118;10.272;2023-05-03T03:21:19;98613.78;;;7.33;64.39
47374;BME280;33123;50.118;10.272;2023-05-03T03:23:45;98614.16;;;7.36;64.29
47374;BME280;33123;50.118;10.272;2023-05-03T03:26:13;98601.25;;;7.35;64.64
47374;BME280;33123;50.118;10.272;2023-05-03T03:28:40;98609.13;;;7.41;64.54
47374;BME280;33123;50.118;10.272;2023-05-03T03:31:07;98612.97;;;7.39;63.61
47374;BME280;33123;50.118;10.272;2023-05-03T03:33:33;98623.25;;;7.40;63.63
47374;BME280;33123;50.118;10.272;2023-05-03T03:36:00;98620.22;;;7.50;63.38
47374;BME280;33123;50.118;10.272;2023-05-03T03:38:27;98610.53;;;7.44;62.95
47374;BME280;33123;50.118;10.272;2023-05-03T03:40:53;98614.97;;;7.50;63.78
47374;BME280;33123;50.118;10.272;2023-05-03T03:43:22;98617.78;;;7.49;63.60
47374;BME280;33123;50.118;10.272;2023-05-03T03:45:48;98619.59;;;7.55;63.25
47374;BME280;33123;50.118;10.272;2023-05-03T03:48:15;98632.50;;;7.56;63.33
47374;BME280;33123;50.118;10.272;2023-05-03T03:50:42;98623.84;;;7.56;62.64
47374;BME280;33123;50.118;10.272;2023-05-03T03:53:08;98627.88;;;7.58;62.61
47374;BME280;33123;50.118;10.272;2023-05-03T03:55:36;98624.22;;;7.59;63.22
47374;BME280;33123;50.118;10.272;2023-05-03T03:58:02;98627.66;;;7.60;62.43
47374;BME280;33123;50.118;10.272;2023-05-03T04:03:37;98637.75;;;7.63;63.02
47374;BME280;33123;50.118;10.272;2023-05-03T04:06:04;98623.41;;;7.59;62.82
47374;BME280;33123;50.118;10.272;2023-05-03T04:08:31;98636.34;;;7.67;62.54
47374;BME280;33123;50.118;10.272;2023-05-03T04:10:57;98639.97;;;7.73;62.61
47374;BME280;33123;50.118;10.272;2023-05-03T04:13:24;98637.53;;;7.71;61.73
47374;BME280;33123;50.118;10.272;2023-05-03T04:15:53;98641.38;;;7.75;61.81
47374;BME280;33123;50.118;10.272;2023-05-03T04:18:20;98642.97;;;7.76;61.84
47374;BME280;33123;50.118;10.272;2023-05-03T04:20:48;98642.97;;;7.76;61.80
47374;BME280;33123;50.118;10.272;2023-05-03T04:23:15;98639.53;;;7.76;61.59
47374;BME280;33123;50.118;10.272;2023-05-03T04:25:42;98639.53;;;7.82;61.38
47374;BME280;33123;50.118;10.272;2023-05-03T04:28:11;98645.78;;;7.81;61.80
47374;BME280;33123;50.118;10.272;2023-05-03T04:30:38;98645.41;;;7.84;61.09
47374;BME280;33123;50.118;10.272;2023-05-03T04:33:04;98641.97;;;7.84;61.54
47374;BME280;33123;50.118;10.272;2023-05-03T04:35:31;98653.47;;;7.89;61.68
47374;BME280;33123;50.118;10.272;2023-05-03T04:37:59;98646.00;;;7.86;61.07
47374;BME280;33123;50.118;10.272;2023-05-03T04:40:27;98655.84;;;7.98;61.53
47374;BME280;33123;50.118;10.272;2023-05-03T04:42:54;98655.28;;;7.96;61.08
47374;BME280;33123;50.118;10.272;2023-05-03T04:45:21;98655.03;;;8.04;61.17
47374;BME280;33123;50.118;10.272;2023-05-03T04:47:48;98631.03;;;7.87;60.23
47374;BME280;33123;50.118;10.272;2023-05-03T04:50:15;98658.28;;;8.06;60.59
47374;BME280;33123;50.118;10.272;2023-05-03T04:52:42;98659.91;;;8.00;59.59
47374;BME280;33123;50.118;10.272;2023-05-03T04:55:10;98653.22;;;8.04;60.36
47374;BME280;33123;50.118;10.272;2023-05-03T04:57:36;98653.44;;;8.03;60.76
47374;BME280;33123;50.118;10.272;2023-05-03T05:00:04;98654.84;;;8.05;60.23
47374;BME280;33123;50.118;10.272;2023-05-03T05:02:35;98660.06;;;8.12;60.29
47374;BME280;33123;50.118;10.272;2023-05-03T05:05:02;98655.59;;;8.19;59.48
47374;BME280;33123;50.118;10.272;2023-05-03T05:07:29;98660.47;;;8.22;59.65
47374;BME280;33123;50.118;10.272;2023-05-03T05:09:55;98657.59;;;8.30;59.63
47374;BME280;33123;50.118;10.272;2023-05-03T05:12:24;98670.31;;;8.40;59.88
47374;BME280;33123;50.118;10.272;2023-05-03T05:14:50;98628.09;;;8.21;59.38
47374;BME280;33123;50.118;10.272;2023-05-03T05:17:17;98673.09;;;8.52;58.92
47374;BME280;33123;50.118;10.272;2023-05-03T05:19:44;98681.16;;;8.57;58.23
47374;BME280;33123;50.118;10.272;2023-05-03T05:22:10;98677.72;;;8.63;58.31
47374;BME280;33123;50.118;10.272;2023-05-03T05:24:43;98677.28;;;8.66;58.10
47374;BME280;33123;50.118;10.272;2023-05-03T05:27:11;98690.59;;;8.71;58.55
47374;BME280;33123;50.118;10.272;2023-05-03T05:29:39;98689.34;;;8.80;57.49
47374;BME280;33123;50.118;10.272;2023-05-03T05:32:05;98694.16;;;8.90;57.65
47374;BME280;33123;50.118;10.272;2023-05-03T05:34:32;98674.53;;;8.92;57.18
47374;BME280;33123;50.118;10.272;2023-05-03T05:36:59;98693.97;;;9.23;57.29
47374;BME280;33123;50.118;10.272;2023-05-03T05:39:25;98691.97;;;9.50;56.70
47374;BME280;33123;50.118;10.272;2023-05-03T05:41:52;98695.31;;;9.82;56.07
47374;BME280;33123;50.118;10.272;2023-05-03T05:44:19;98693.41;;;10.14;54.74
47374;BME280;33123;50.118;10.272;2023-05-03T05:47:08;98694.88;;;10.65;54.81
47374;BME280;33123;50.118;10.272;2023-05-03T05:49:35;98695.06;;;11.00;52.65
47374;BME280;33123;50.118;10.272;2023-05-03T05:52:02;98700.94;;;11.44;51.73
47374;BME280;33123;50.118;10.272;2023-05-03T05:54:28;98695.44;;;11.81;50.02
47374;BME280;33123;50.118;10.272;2023-05-03T05:56:56;98684.44;;;12.19;49.90
47374;BME280;33123;50.118;10.272;2023-05-03T05:59:22;98701.03;;;12.66;49.12
47374;BME280;33123;50.118;10.272;2023-05-03T06:01:49;98689.69;;;13.11;47.80
47374;BME280;33123;50.118;10.272;2023-05-03T06:04:17;98687.34;;;13.43;45.76
47374;BME280;33123;50.118;10.272;2023-05-03T06:06:44;98690.22;;;13.92;45.25
47374;BME280;33123;50.118;10.272;2023-05-03T06:09:11;98694.66;;;14.25;43.85
47374;BME280;33123;50.118;10.272;2023-05-03T06:11:38;98692.50;;;14.61;44.42
47374;BME280;33123;50.118;10.272;2023-05-03T06:14:07;98688.59;;;14.91;44.76
47374;BME280;33123;50.118;10.272;2023-05-03T06:16:34;98688.22;;;15.09;42.59
47374;BME280;33123;50.118;10.272;2023-05-03T06:19:01;98695.06;;;15.27;41.97
47374;BME280;33123;50.118;10.272;2023-05-03T06:21:30;98693.03;;;15.39;40.87
47374;BME280;33123;50.118;10.272;2023-05-03T06:23:57;98700.59;;;15.52;41.88
47374;BME280;33123;50.118;10.272;2023-05-03T06:26:23;98701.94;;;15.55;41.87
47374;BME280;33123;50.118;10.272;2023-05-03T06:28:50;98699.25;;;15.50;41.82
47374;BME280;33123;50.118;10.272;2023-05-03T06:31:17;98697.13;;;15.52;41.89
47374;BME280;33123;50.118;10.272;2023-05-03T06:33:43;98697.03;;;15.15;41.22
47374;BME280;33123;50.118;10.272;2023-05-03T06:36:10;98688.13;;;14.99;41.02
47374;BME280;33123;50.118;10.272;2023-05-03T06:38:38;98691.19;;;14.64;42.10
47374;BME280;33123;50.118;10.272;2023-05-03T06:41:05;98699.63;;;14.39;42.33
47374;BME280;33123;50.118;10.272;2023-05-03T06:43:32;98704.22;;;14.26;43.08
47374;BME280;33123;50.118;10.272;2023-05-03T06:45:58;98697.28;;;14.04;43.38
47374;BME280;33123;50.118;10.272;2023-05-03T06:48:25;98692.78;;;14.04;43.14
47374;BME280;33123;50.118;10.272;2023-05-03T06:50:52;98704.81;;;14.12;42.78
47374;BME280;33123;50.118;10.272;2023-05-03T06:53:19;98699.34;;;14.18;41.96
47374;BME280;33123;50.118;10.272;2023-05-03T06:55:47;98696.91;;;14.34;41.18
47374;BME280;33123;50.118;10.272;2023-05-03T06:58:13;98695.47;;;14.26;40.25
47374;BME280;33123;50.118;10.272;2023-05-03T07:00:41;98696.25;;;14.65;40.33
47374;BME280;33123;50.118;10.272;2023-05-03T07:03:07;98692.50;;;14.61;39.89
47374;BME280;33123;50.118;10.272;2023-05-03T07:05:34;98694.28;;;14.77;39.16
47374;BME280;33123;50.118;10.272;2023-05-03T07:08:00;98698.81;;;14.82;39.22
47374;BME280;33123;50.118;10.272;2023-05-03T07:10:27;98677.13;;;15.12;39.48
47374;BME280;33123;50.118;10.272;2023-05-03T07:12:56;98684.50;;;15.64;41.35
47374;BME280;33123;50.118;10.272;2023-05-03T07:15:23;98683.50;;;16.13;39.68
47374;BME280;33123;50.118;10.272;2023-05-03T07:17:50;98683.19;;;16.56;39.12
47374;BME280;33123;50.118;10.272;2023-05-03T07:20:16;98685.97;;;16.92;38.69
47374;BME280;33123;50.118;10.272;2023-05-03T07:22:43;98683.13;;;17.34;37.59
47374;BME280;33123;50.118;10.272;2023-05-03T07:25:10;98678.06;;;17.84;36.69
47374;BME280;33123;50.118;10.272;2023-05-03T07:27:38;98689.41;;;18.40;36.69
47374;BME280;33123;50.118;10.272;2023-05-03T07:30:07;98666.31;;;18.75;35.30
47374;BME280;33123;50.118;10.272;2023-05-03T07:32:34;98671.75;;;19.04;33.90
47374;BME280;33123;50.118;10.272;2023-05-03T07:35:01;98665.47;;;19.29;35.77
47374;BME280;33123;50.118;10.272;2023-05-03T07:37:28;98671.44;;;19.50;34.79
47374;BME280;33123;50.118;10.272;2023-05-03T07:39:54;98666.81;;;19.66;32.88
47374;BME280;33123;50.118;10.272;2023-05-03T07:42:21;98668.13;;;19.92;33.67
47374;BME280;33123;50.118;10.272;2023-05-03T07:44:47;98667.25;;;20.26;32.66
47374;BME280;33123;50.118;10.272;2023-05-03T07:47:15;98651.50;;;19.71;31.88
47374;BME280;33123;50.118;10.272;2023-05-03T07:49:42;98654.28;;;19.56;32.61
47374;BME280;33123;50.118;10.272;2023-05-03T07:52:09;98655.63;;;19.19;33.36
47374;BME280;33123;50.118;10.272;2023-05-03T07:54:35;98653.13;;;18.99;33.14
47374;BME280;33123;50.118;10.272;2023-05-03T07:57:02;98621.56;;;19.01;34.11
47374;BME280;33123;50.118;10.272;2023-05-03T07:59:30;98653.41;;;19.32;35.46
47374;BME280;33123;50.118;10.272;2023-05-03T08:01:57;98658.91;;;19.45;33.20
47374;BME280;33123;50.118;10.272;2023-05-03T08:04:25;98640.66;;;19.52;34.30
47374;BME280;33123;50.118;10.272;2023-05-03T08:07:06;98661.53;;;19.85;34.29
47374;BME280;33123;50.118;10.272;2023-05-03T08:09:33;98659.97;;;20.08;34.95
47374;BME280;33123;50.118;10.272;2023-05-03T08:12:00;98657.75;;;20.39;33.67
47374;BME280;33123;50.118;10.272;2023-05-03T08:14:27;98653.28;;;20.77;33.13
47374;BME280;33123;50.118;10.272;2023-05-03T08:16:54;98657.69;;;21.05;33.51
47374;BME280;33123;50.118;10.272;2023-05-03T08:19:21;98644.94;;;20.97;32.84
47374;BME280;33123;50.118;10.272;2023-05-03T08:21:49;98661.59;;;21.13;32.53
47374;BME280;33123;50.118;10.272;2023-05-03T08:24:18;98659.41;;;21.34;31.91
47374;BME280;33123;50.118;10.272;2023-05-03T08:26:45;98639.97;;;21.42;32.41
47374;BME280;33123;50.118;10.272;2023-05-03T08:29:12;98657.63;;;21.76;30.74
47374;BME280;33123;50.118;10.272;2023-05-03T08:31:39;98635.69;;;21.41;30.69
47374;BME280;33123;50.118;10.272;2023-05-03T08:34:07;98667.72;;;21.98;31.74
47374;BME280;33123;50.118;10.272;2023-05-03T08:36:35;98665.50;;;21.86;30.19
47374;BME280;33123;50.118;10.272;2023-05-03T08:39:04;98671.94;;;22.18;30.31
47374;BME280;33123;50.118;10.272;2023-05-03T08:41:31;98650.47;;;22.18;31.29
47374;BME280;33123;50.118;10.272;2023-05-03T08:43:59;98671.78;;;21.95;29.00
47374;BME280;33123;50.118;10.272;2023-05-03T08:46:28;98640.34;;;21.82;32.64
47374;BME280;33123;50.118;10.272;2023-05-03T08:48:55;98650.03;;;21.97;29.42
47374;BME280;33123;50.118;10.272;2023-05-03T08:51:22;98660.25;;;22.08;31.30
47374;BME280;33123;50.118;10.272;2023-05-03T08:53:49;98662.69;;;22.24;32.12
47374;BME280;33123;50.118;10.272;2023-05-03T08:56:23;98661.78;;;22.56;31.41
47374;BME280;33123;50.118;10.272;2023-05-03T08:58:51;98664.53;;;22.64;31.90
47374;BME280;33123;50.118;10.272;2023-05-03T09:01:18;98658.13;;;23.02;30.54
47374;BME280;33123;50.118;10.272;2023-05-03T09:03:48;98649.94;;;23.29;30.97
47374;BME280;33123;50.118;10.272;2023-05-03T09:06:20;98658.09;;;23.60;30.28
47374;BME280;33123;50.118;10.272;2023-05-03T09:08:46;98643.28;;;23.72;27.27
47374;BME280;33123;50.118;10.272;2023-05-03T09:11:21;98663.59;;;24.17;29.33
47374;BME280;33123;50.118;10.272;2023-05-03T09:13:49;98661.91;;;24.30;30.08
47374;BME280;33123;50.118;10.272;2023-05-03T09:16:26;98659.78;;;24.58;27.85
47374;BME280;33123;50.118;10.272;2023-05-03T09:18:57;98660.28;;;24.69;29.31
47374;BME280;33123;50.118;10.272;2023-05-03T09:21:24;98662.28;;;24.46;27.42
47374;BME280;33123;50.118;10.272;2023-05-03T09:23:51;98653.78;;;24.61;27.60
47374;BME280;33123;50.118;10.272;2023-05-03T09:26:29;98664.75;;;24.82;29.61
47374;BME280;33123;50.118;10.272;2023-05-03T09:28:58;98660.00;;;24.96;28.01
47374;BME280;33123;50.118;10.272;2023-05-03T09:31:25;98649.56;;;25.21;28.11
47374;BME280;33123;50.118;10.272;2023-05-03T09:33:51;98654.69;;;25.69;26.60
47374;BME280;33123;50.118;10.272;2023-05-03T09:36:18;98652.09;;;25.99;27.44
47374;BME280;33123;50.118;10.272;2023-05-03T09:38:46;98650.81;;;26.05;25.09
47374;BME280;33123;50.118;10.272;2023-05-03T09:41:13;98654.41;;;26.18;26.26
47374;BME280;33123;50.118;10.272;2023-05-03T09:43:49;98653.88;;;26.24;26.28
47374;BME280;33123;50.118;10.272;2023-05-03T09:46:17;98647.53;;;26.20;25.33
47374;BME280;33123;50.118;10.272;2023-05-03T09:48:44;98642.13;;;26.20;27.09
47374;BME280;33123;50.118;10.272;2023-05-03T09:51:11;98637.66;;;26.24;25.94
47374;BME280;33123;50.118;10.272;2023-05-03T09:53:38;98636.28;;;26.48;24.04
47374;BME280;33123;50.118;10.272;2023-05-03T09:56:09;98583.47;;;25.91;25.72
47374;BME280;33123;50.118;10.272;2023-05-03T09:58:38;98628.72;;;26.03;24.40
47374;BME280;33123;50.118;10.272;2023-05-03T10:01:07;98635.16;;;25.72;25.28
47374;BME280;33123;50.118;10.272;2023-05-03T10:03:39;98636.44;;;25.75;27.74
47374;BME280;33123;50.118;10.272;2023-05-03T10:06:14;98633.06;;;25.87;27.24
47374;BME280;33123;50.118;10.272;2023-05-03T10:08:48;98608.06;;;25.60;24.26
47374;BME280;33123;50.118;10.272;2023-05-03T10:11:15;98637.38;;;25.88;24.60
47374;BME280;33123;50.118;10.272;2023-05-03T10:13:43;98624.53;;;25.76;25.32
47374;BME280;33123;50.118;10.272;2023-05-03T10:16:15;98625.56;;;25.28;26.38
47374;BME280;33123;50.118;10.272;2023-05-03T10:18:47;98595.91;;;25.28;24.77
47374;BME280;33123;50.118;10.272;2023-05-03T10:21:17;98623.13;;;25.52;26.93
47374;BME280;33123;50.118;10.272;2023-05-03T10:24:19;98618.84;;;25.60;24.04
47374;BME280;33123;50.118;10.272;2023-05-03T10:26:46;98628.84;;;25.77;24.94
47374;BME280;33123;50.118;10.272;2023-05-03T10:29:43;98616.16;;;25.60;23.91
47374;BME280;33123;50.118;10.272;2023-05-03T10:32:31;98614.06;;;25.57;23.58
47374;BME280;33123;50.118;10.272;2023-05-03T10:35:03;98607.25;;;25.60;27.75
47374;BME280;33123;50.118;10.272;2023-05-03T10:37:32;98620.09;;;25.71;25.01
47374;BME280;33123;50.118;10.272;2023-05-03T10:40:05;98614.59;;;25.97;25.37
47374;BME280;33123;50.118;10.272;2023-05-03T10:42:33;98610.38;;;26.17;25.79
47374;BME280;33123;50.118;10.272;2023-05-03T10:45:00;98614.09;;;26.33;25.14
47374;BME280;33123;50.118;10.272;2023-05-03T10:47:28;98614.34;;;26.70;24.57
47374;BME280;33123;50.118;10.272;2023-05-03T10:53:37;98621.56;;;27.08;24.13
47374;BME280;33123;50.118;10.272;2023-05-03T10:56:05;98603.09;;;27.10;24.69
47374;BME280;33123;50.118;10.272;2023-05-03T10:58:35;98602.38;;;27.34;26.02
47374;BME280;33123;50.118;10.272;2023-05-03T11:01:03;98591.66;;;26.83;22.30
47374;BME280;33123;50.118;10.272;2023-05-03T11:06:27;98591.34;;;26.85;25.40
47374;BME280;33123;50.118;10.272;2023-05-03T11:08:55;98588.81;;;26.59;23.52
47374;BME280;33123;50.118;10.272;2023-05-03T11:11:22;98583.09;;;26.31;24.47
47374;BME280;33123;50.118;10.272;2023-05-03T11:13:49;98580.34;;;26.40;24.54
47374;BME280;33123;50.118;10.272;2023-05-03T11:16:16;98548.16;;;26.26;24.46
47374;BME280;33123;50.118;10.272;2023-05-03T11:18:42;98583.41;;;26.59;25.12
47374;BME280;33123;50.118;10.272;2023-05-03T11:21:10;98582.31;;;26.30;23.10
47374;BME280;33123;50.118;10.272;2023-05-03T11:23:38;98579.56;;;25.80;22.54
47374;BME280;33123;50.118;10.272;2023-05-03T11:26:07;98564.53;;;25.53;23.17
47374;BME280;33123;50.118;10.272;2023-05-03T11:28:36;98569.09;;;24.97;23.72
47374;BME280;33123;50.118;10.272;2023-05-03T11:31:03;98563.06;;;25.09;24.91
47374;BME280;33123;50.118;10.272;2023-05-03T11:33:32;98567.50;;;25.22;25.58
47374;BME280;33123;50.118;10.272;2023-05-03T11:36:00;98568.06;;;25.45;26.69
47374;BME280;33123;50.118;10.272;2023-05-03T11:38:29;98569.25;;;25.73;24.25
47374;BME280;33123;50.118;10.272;2023-05-03T11:40:56;98563.31;;;25.89;23.46
47374;BME280;33123;50.118;10.272;2023-05-03T11:43:24;98566.56;;;26.03;25.94
47374;BME280;33123;50.118;10.272;2023-05-03T11:45:53;98565.16;;;26.05;25.19
47374;BME280;33123;50.118;10.272;2023-05-03T11:48:22;98561.53;;;25.93;21.45
47374;BME280;33123;50.118;10.272;2023-05-03T11:50:53;98564.00;;;25.68;24.03
47374;BME280;33123;50.118;10.272;2023-05-03T11:53:21;98565.94;;;25.59;23.44
47374;BME280;33123;50.118;10.272;2023-05-03T11:55:49;98551.44;;;25.25;22.18
47374;BME280;33123;50.118;10.272;2023-05-03T11:58:18;98549.09;;;24.98;25.32
47374;BME280;33123;50.118;10.272;2023-05-03T12:00:48;98552.47;;;24.60;23.57
47374;BME280;33123;50.118;10.272;2023-05-03T12:03:16;98548.25;;;24.19;24.18
47374;BME280;33123;50.118;10.272;2023-05-03T12:05:44;98549.94;;;23.98;26.55
47374;BME280;33123;50.118;10.272;2023-05-03T12:08:11;98548.63;;;23.78;26.55
47374;BME280;33123;50.118;10.272;2023-05-03T12:10:39;98544.22;;;23.51;24.34
47374;BME280;33123;50.118;10.272;2023-05-03T12:13:06;98537.50;;;23.40;24.58
47374;BME280;33123;50.118;10.272;2023-05-03T12:15:34;98525.56;;;23.24;25.61
47374;BME280;33123;50.118;10.272;2023-05-03T12:18:05;98538.44;;;23.35;27.05
47374;BME280;33123;50.118;10.272;2023-05-03T12:20:34;98539.91;;;22.74;24.76
47374;BME280;33123;50.118;10.272;2023-05-03T12:23:02;98527.03;;;22.62;26.99
47374;BME280;33123;50.118;10.272;2023-05-03T12:25:32;98535.56;;;22.64;27.79
47374;BME280;33123;50.118;10.272;2023-05-03T12:28:02;98531.81;;;22.65;26.88
47374;BME280;33123;50.118;10.272;2023-05-03T12:30:30;98533.50;;;22.84;28.57
47374;BME280;33123;50.118;10.272;2023-05-03T12:32:57;98534.63;;;23.05;29.35
47374;BME280;33123;50.118;10.272;2023-05-03T12:35:25;98520.38;;;23.27;27.77
47374;BME280;33123;50.118;10.272;2023-05-03T12:37:52;98521.84;;;23.42;26.99
47374;BME280;33123;50.118;10.272;2023-05-03T12:40:19;98520.66;;;23.26;26.13
47374;BME280;33123;50.118;10.272;2023-05-03T12:42:48;98526.25;;;23.07;25.72
47374;BME280;33123;50.118;10.272;2023-05-03T12:45:15;98528.84;;;22.76;26.20
47374;BME280;33123;50.118;10.272;2023-05-03T12:47:42;98524.81;;;22.64;28.40
47374;BME280;33123;50.118;10.272;2023-05-03T12:50:09;98520.84;;;22.62;29.84
47374;BME280;33123;50.118;10.272;2023-05-03T12:52:37;98517.94;;;22.72;27.57
47374;BME280;33123;50.118;10.272;2023-05-03T12:55:05;98520.44;;;22.69;24.75
47374;BME280;33123;50.118;10.272;2023-05-03T12:57:32;98514.34;;;22.77;26.68
47374;BME280;33123;50.118;10.272;2023-05-03T12:59:59;98518.78;;;22.81;27.62
47374;BME280;33123;50.118;10.272;2023-05-03T13:02:26;98514.06;;;22.87;27.47
47374;BME280;33123;50.118;10.272;2023-05-03T13:04:53;98509.38;;;22.92;26.13
47374;BME280;33123;50.118;10.272;2023-05-03T13:07:24;98510.06;;;22.98;26.96
47374;BME280;33123;50.118;10.272;2023-05-03T13:09:53;98490.75;;;22.74;26.30
47374;BME280;33123;50.118;10.272;2023-05-03T13:12:20;98507.22;;;22.81;26.54
47374;BME280;33123;50.118;10.272;2023-05-03T13:14:48;98499.84;;;22.64;25.87
47374;BME280;33123;50.118;10.272;2023-05-03T13:17:15;98494.31;;;22.60;27.84